sensor_id;sensor_type;location;lat;lon;timestamp;pressure;altitude;pressure_sealevel;temperature;humidity
21956;BME280;11142;49.930;8.606;2023-05-16T00:01:41;99832.09;;;12.88;100.00
21956;BME280;11142;49.930;8.606;2023-05-16T00:04:10;99836.25;;;12.90;100.00
21956;BME280;11142;49.930;8.606;2023-05-16T00:06:38;99841.09;;;12.84;100.00
21956;BME280;11142;49.930;8.606;2023-05-16T00:09:06;99834.81;;;12.97;100.00
21956;BME280;11142;49.930;8.606;2023-05-16T00:11:34;99833.75;;;12.89;100.00
21956;BME280;11142;49.930;8.606;2023-05-16T00:14:02;99830.44;;;12.75;100.00
21956;BME280;11142;49.930;8.606;2023-05-16T00:16:30;99827.00;;;12.64;100.00
21956;BME280;11142;49.930;8.606;2023-05-16T00:21:47;99822.72;;;12.52;100.00
21956;BME280;11142;49.930;8.606;2023-05-16T00:24:16;99818.09;;;12.44;100.00
21956;BME280;11142;49.930;8.606;2023-05-16T00:26:44;99818.44;;;12.40;100.00
21956;BME280;11142;49.930;8.606;2023-05-16T00:29:14;99811.44;;;12.29;100.00
21956;BME280;11142;49.930;8.606;2023-05-16T00:31:42;99813.53;;;12.24;100.00
21956;BME280;11142;49.930;8.606;2023-05-16T00:34:10;99809.84;;;12.15;100.00
21956;BME280;11142;49.930;8.606;2023-05-16T00:36:38;99817.19;;;12.10;100.00
21956;BME280;11142;49.930;8.606;2023-05-16T00:39:08;99817.72;;;12.03;100.00
21956;BME280;11142;49.930;8.606;2023-05-16T00:41:36;99816.19;;;12.00;100.00
21956;BME280;11142;49.930;8.606;2023-05-16T00:44:04;99814.66;;;11.98;100.00
21956;BME280;11142;49.930;8.606;2023-05-16T00:46:32;99817.56;;;11.93;100.00
21956;BME280;11142;49.930;8.606;2023-05-16T00:49:00;99813.34;;;11.92;100.00
21956;BME280;11142;49.930;8.606;2023-05-16T00:51:29;99816.97;;;11.90;100.00
21956;BME280;11142;49.930;8.606;2023-05-16T00:53:57;99819.34;;;11.93;100.00
21956;BME280;11142;49.930;8.606;2023-05-16T00:56:26;99817.19;;;11.87;100.00
21956;BME280;11142;49.930;8.606;2023-05-16T00:58:55;99812.22;;;11.84;100.00
21956;BME280;11142;49.930;8.606;2023-05-16T01:01:24;99816.25;;;11.88;100.00
21956;BME280;11142;49.930;8.606;2023-05-16T01:03:53;99813.53;;;11.89;100.00
21956;BME280;11142;49.930;8.606;2023-05-16T01:06:22;99813.75;;;11.86;100.00
21956;BME280;11142;49.930;8.606;2023-05-16T01:08:50;99815.34;;;11.89;100.00
21956;BME280;11142;49.930;8.606;2023-05-16T01:11:20;99817.47;;;11.95;100.00
21956;BME280;11142;49.930;8.606;2023-05-16T01:13:54;99824.63;;;12.15;100.00
21956;BME280;11142;49.930;8.606;2023-05-16T01:16:25;99815.75;;;12.06;100.00
21956;BME280;11142;49.930;8.606;2023-05-16T01:18:56;99816.06;;;12.02;100.00
21956;BME280;11142;49.930;8.606;2023-05-16T01:21:33;99810.00;;;11.90;100.00
21956;BME280;11142;49.930;8.606;2023-05-16T01:24:08;99812.38;;;11.93;100.00
21956;BME280;11142;49.930;8.606;2023-05-16T01:26:41;99809.53;;;11.85;100.00
21956;BME280;11142;49.930;8.606;2023-05-16T01:29:10;99814.75;;;11.96;100.00
21956;BME280;11142;49.930;8.606;2023-05-16T01:31:40;99816.75;;;11.93;100.00
21956;BME280;11142;49.930;8.606;2023-05-16T01:34:08;99819.56;;;11.90;100.00
21956;BME280;11142;49.930;8.606;2023-05-16T01:36:38;99811.94;;;11.99;100.00
21956;BME280;11142;49.930;8.606;2023-05-16T01:39:10;99818.56;;;12.03;100.00
21956;BME280;11142;49.930;8.606;2023-05-16T01:41:47;99817.06;;;12.12;100.00
21956;BME280;11142;49.930;8.606;2023-05-16T01:44:22;99818.97;;;12.21;100.00
21956;BME280;11142;49.930;8.606;2023-05-16T01:46:53;99823.28;;;12.33;100.00
21956;BME280;11142;49.930;8.606;2023-05-16T01:49:25;99827.75;;;12.31;100.00
21956;BME280;11142;49.930;8.606;2023-05-16T01:51:54;99828.81;;;12.29;100.00
21956;BME280;11142;49.930;8.606;2023-05-16T01:54:26;99826.22;;;12.29;100.00
21956;BME280;11142;49.930;8.606;2023-05-16T01:57:01;99825.22;;;12.18;100.00
21956;BME280;11142;49.930;8.606;2023-05-16T01:59:32;99825.47;;;12.15;100.00
21956;BME280;11142;49.930;8.606;2023-05-16T02:02:01;99827.22;;;12.04;100.00
21956;BME280;11142;49.930;8.606;2023-05-16T02:04:29;99822.16;;;11.90;100.00
21956;BME280;11142;49.930;8.606;2023-05-16T02:06:57;99817.53;;;11.82;100.00
21956;BME280;11142;49.930;8.606;2023-05-16T02:09:26;99817.66;;;11.81;100.00
21956;BME280;11142;49.930;8.606;2023-05-16T02:11:55;99821.69;;;11.85;100.00
21956;BME280;11142;49.930;8.606;2023-05-16T02:14:24;99824.06;;;11.88;100.00
21956;BME280;11142;49.930;8.606;2023-05-16T02:16:54;99818.47;;;11.81;100.00
21956;BME280;11142;49.930;8.606;2023-05-16T02:19:25;99818.16;;;11.86;100.00
21956;BME280;11142;49.930;8.606;2023-05-16T02:21:53;99819.41;;;11.80;100.00
21956;BME280;11142;49.930;8.606;2023-05-16T02:24:22;99824.59;;;11.80;100.00
21956;BME280;11142;49.930;8.606;2023-05-16T02:26:50;99823.78;;;11.80;100.00
21956;BME280;11142;49.930;8.606;2023-05-16T02:29:17;99831.50;;;11.68;100.00
21956;BME280;11142;49.930;8.606;2023-05-16T02:31:47;99822.00;;;11.56;100.00
21956;BME280;11142;49.930;8.606;2023-05-16T02:34:15;99818.47;;;11.57;100.00
21956;BME280;11142;49.930;8.606;2023-05-16T02:36:43;99821.47;;;11.51;100.00
21956;BME280;11142;49.930;8.606;2023-05-16T02:39:11;99820.97;;;11.46;100.00
21956;BME280;11142;49.930;8.606;2023-05-16T02:41:39;99815.31;;;11.41;100.00
21956;BME280;11142;49.930;8.606;2023-05-16T02:44:07;99822.91;;;11.32;100.00
21956;BME280;11142;49.930;8.606;2023-05-16T02:46:35;99813.97;;;11.23;100.00
21956;BME280;11142;49.930;8.606;2023-05-16T02:49:04;99819.19;;;11.23;100.00
21956;BME280;11142;49.930;8.606;2023-05-16T02:51:33;99819.72;;;11.15;100.00
21956;BME280;11142;49.930;8.606;2023-05-16T02:54:01;99816.50;;;11.12;100.00
21956;BME280;11142;49.930;8.606;2023-05-16T02:56:28;99816.50;;;11.12;100.00
21956;BME280;11142;49.930;8.606;2023-05-16T02:58:57;99819.31;;;11.09;100.00
21956;BME280;11142;49.930;8.606;2023-05-16T03:01:25;99819.44;;;10.95;100.00
21956;BME280;11142;49.930;8.606;2023-05-16T03:03:53;99820.78;;;10.88;100.00
21956;BME280;11142;49.930;8.606;2023-05-16T03:06:23;99813.97;;;10.87;100.00
21956;BME280;11142;49.930;8.606;2023-05-16T03:08:51;99811.59;;;10.84;100.00
21956;BME280;11142;49.930;8.606;2023-05-16T03:11:19;99822.47;;;10.89;100.00
21956;BME280;11142;49.930;8.606;2023-05-16T03:13:48;99819.66;;;10.92;100.00
21956;BME280;11142;49.930;8.606;2023-05-16T03:16:16;99817.81;;;10.94;100.00
21956;BME280;11142;49.930;8.606;2023-05-16T03:18:44;99821.00;;;10.97;100.00
21956;BME280;11142;49.930;8.606;2023-05-16T03:21:13;99815.91;;;10.96;100.00
21956;BME280;11142;49.930;8.606;2023-05-16T03:23:44;99816.22;;;10.91;100.00
21956;BME280;11142;49.930;8.606;2023-05-16T03:26:12;99819.88;;;10.89;100.00
21956;BME280;11142;49.930;8.606;2023-05-16T03:28:41;99819.88;;;10.89;100.00
21956;BME280;11142;49.930;8.606;2023-05-16T03:31:09;99818.94;;;10.90;100.00
21956;BME280;11142;49.930;8.606;2023-05-16T03:33:37;99824.84;;;10.92;100.00
21956;BME280;11142;49.930;8.606;2023-05-16T03:36:05;99837.41;;;10.98;100.00
21956;BME280;11142;49.930;8.606;2023-05-16T03:38:34;99837.94;;;11.03;100.00
21956;BME280;11142;49.930;8.606;2023-05-16T03:41:03;99841.56;;;11.13;100.00
21956;BME280;11142;49.930;8.606;2023-05-16T03:43:34;99849.41;;;11.24;100.00
21956;BME280;11142;49.930;8.606;2023-05-16T03:46:02;99850.34;;;11.23;100.00
21956;BME280;11142;49.930;8.606;2023-05-16T03:48:31;99850.47;;;11.22;100.00
21956;BME280;11142;49.930;8.606;2023-05-16T03:50:59;99850.75;;;11.30;100.00
21956;BME280;11142;49.930;8.606;2023-05-16T03:53:27;99866.34;;;11.30;100.00
21956;BME280;11142;49.930;8.606;2023-05-16T03:55:55;99863.78;;;11.53;100.00
21956;BME280;11142;49.930;8.606;2023-05-16T03:58:25;99865.38;;;11.67;100.00
21956;BME280;11142;49.930;8.606;2023-05-16T04:00:53;99868.78;;;11.56;100.00
21956;BME280;11142;49.930;8.606;2023-05-16T04:03:21;99869.38;;;11.60;100.00
21956;BME280;11142;49.930;8.606;2023-05-16T04:05:54;99870.63;;;11.54;100.00
21956;BME280;11142;49.930;8.606;2023-05-16T04:08:23;99868.66;;;11.58;100.00
21956;BME280;11142;49.930;8.606;2023-05-16T04:10:51;99864.66;;;11.41;100.00
21956;BME280;11142;49.930;8.606;2023-05-16T04:13:19;99864.09;;;11.49;100.00
21956;BME280;11142;49.930;8.606;2023-05-16T04:15:49;99861.84;;;11.44;100.00
21956;BME280;11142;49.930;8.606;2023-05-16T04:18:17;99863.63;;;11.44;100.00
21956;BME280;11142;49.930;8.606;2023-05-16T04:20:45;99866.31;;;11.42;100.00
21956;BME280;11142;49.930;8.606;2023-05-16T04:23:14;99862.78;;;11.43;100.00
21956;BME280;11142;49.930;8.606;2023-05-16T04:25:43;99865.25;;;11.57;100.00
21956;BME280;11142;49.930;8.606;2023-05-16T04:28:11;99871.47;;;11.91;100.00
21956;BME280;11142;49.930;8.606;2023-05-16T04:30:39;99880.88;;;12.05;100.00
21956;BME280;11142;49.930;8.606;2023-05-16T04:33:11;99881.13;;;12.37;100.00
21956;BME280;11142;49.930;8.606;2023-05-16T04:35:40;99891.38;;;12.27;100.00
21956;BME280;11142;49.930;8.606;2023-05-16T04:38:08;99894.16;;;12.48;100.00
21956;BME280;11142;49.930;8.606;2023-05-16T04:40:36;99896.84;;;12.35;100.00
21956;BME280;11142;49.930;8.606;2023-05-16T04:43:06;99901.09;;;12.71;100.00
21956;BME280;11142;49.930;8.606;2023-05-16T04:45:34;99909.84;;;13.16;100.00
21956;BME280;11142;49.930;8.606;2023-05-16T04:48:04;99918.59;;;12.69;100.00
21956;BME280;11142;49.930;8.606;2023-05-16T04:50:33;99920.00;;;12.62;100.00
21956;BME280;11142;49.930;8.606;2023-05-16T04:53:02;99915.09;;;12.81;100.00
21956;BME280;11142;49.930;8.606;2023-05-16T04:55:30;99926.75;;;12.64;100.00
21956;BME280;11142;49.930;8.606;2023-05-16T04:57:58;99925.84;;;12.76;100.00
21956;BME280;11142;49.930;8.606;2023-05-16T05:00:26;99925.78;;;12.54;100.00
21956;BME280;11142;49.930;8.606;2023-05-16T05:02:55;99930.28;;;12.63;100.00
21956;BME280;11142;49.930;8.606;2023-05-16T05:05:24;99934.03;;;12.48;100.00
21956;BME280;11142;49.930;8.606;2023-05-16T05:07:54;99933.66;;;12.88;100.00
21956;BME280;11142;49.930;8.606;2023-05-16T05:10:22;99941.28;;;13.02;100.00
21956;BME280;11142;49.930;8.606;2023-05-16T05:12:50;99945.50;;;13.38;100.00
21956;BME280;11142;49.930;8.606;2023-05-16T05:15:18;99943.34;;;13.09;100.00
21956;BME280;11142;49.930;8.606;2023-05-16T05:17:47;99949.63;;;13.40;100.00
21956;BME280;11142;49.930;8.606;2023-05-16T05:20:15;99950.31;;;13.20;100.00
21956;BME280;11142;49.930;8.606;2023-05-16T05:22:43;99966.19;;;13.17;100.00
21956;BME280;11142;49.930;8.606;2023-05-16T05:25:13;99959.69;;;12.88;100.00
21956;BME280;11142;49.930;8.606;2023-05-16T05:27:41;99953.59;;;13.00;100.00
21956;BME280;11142;49.930;8.606;2023-05-16T05:30:09;99957.19;;;13.21;100.00
21956;BME280;11142;49.930;8.606;2023-05-16T05:32:37;99955.91;;;13.26;100.00
21956;BME280;11142;49.930;8.606;2023-05-16T05:35:05;99961.47;;;13.33;100.00
21956;BME280;11142;49.930;8.606;2023-05-16T05:37:33;99967.50;;;13.78;100.00
21956;BME280;11142;49.930;8.606;2023-05-16T05:40:01;99967.16;;;13.71;100.00
21956;BME280;11142;49.930;8.606;2023-05-16T05:42:30;99975.19;;;13.79;100.00
21956;BME280;11142;49.930;8.606;2023-05-16T05:44:59;99966.78;;;13.20;100.00
21956;BME280;11142;49.930;8.606;2023-05-16T05:47:27;99966.91;;;13.19;100.00
21956;BME280;11142;49.930;8.606;2023-05-16T05:49:55;99972.84;;;13.32;100.00
21956;BME280;11142;49.930;8.606;2023-05-16T05:52:23;99971.44;;;13.28;100.00
21956;BME280;11142;49.930;8.606;2023-05-16T05:54:51;99984.59;;;13.38;100.00
21956;BME280;11142;49.930;8.606;2023-05-16T05:57:19;99977.59;;;13.03;100.00
21956;BME280;11142;49.930;8.606;2023-05-16T05:59:48;99983.03;;;12.89;100.00
21956;BME280;11142;49.930;8.606;2023-05-16T06:02:16;99980.63;;;12.75;100.00
21956;BME280;11142;49.930;8.606;2023-05-16T06:04:44;99982.88;;;12.79;100.00
21956;BME280;11142;49.930;8.606;2023-05-16T06:07:13;99975.91;;;12.80;100.00
21956;BME280;11142;49.930;8.606;2023-05-16T06:09:42;99990.88;;;12.65;100.00
21956;BME280;11142;49.930;8.606;2023-05-16T06:12:10;99989.47;;;12.61;100.00
21956;BME280;11142;49.930;8.606;2023-05-16T06:14:38;99993.38;;;12.67;100.00
21956;BME280;11142;49.930;8.606;2023-05-16T06:17:07;99995.06;;;12.79;100.00
21956;BME280;11142;49.930;8.606;2023-05-16T06:19:35;99994.91;;;12.69;100.00
21956;BME280;11142;49.930;8.606;2023-05-16T06:22:03;100001.88;;;12.93;100.00
21956;BME280;11142;49.930;8.606;2023-05-16T06:24:31;100006.09;;;12.83;100.00
21956;BME280;11142;49.930;8.606;2023-05-16T06:27:00;100017.88;;;12.64;100.00
21956;BME280;11142;49.930;8.606;2023-05-16T06:29:28;100011.84;;;12.75;100.00
21956;BME280;11142;49.930;8.606;2023-05-16T06:31:57;100020.50;;;12.75;100.00
21956;BME280;11142;49.930;8.606;2023-05-16T06:34:26;100032.19;;;12.94;100.00
21956;BME280;11142;49.930;8.606;2023-05-16T06:36:55;100036.56;;;12.93;100.00
21956;BME280;11142;49.930;8.606;2023-05-16T06:39:23;100042.22;;;12.87;100.00
21956;BME280;11142;49.930;8.606;2023-05-16T06:41:51;100038.34;;;13.04;100.00
21956;BME280;11142;49.930;8.606;2023-05-16T06:44:23;100045.22;;;12.94;100.00
21956;BME280;11142;49.930;8.606;2023-05-16T06:46:52;100048.38;;;12.86;100.00
21956;BME280;11142;49.930;8.606;2023-05-16T06:49:21;100061.56;;;12.72;100.00
21956;BME280;11142;49.930;8.606;2023-05-16T06:51:51;100057.53;;;12.68;100.00
21956;BME280;11142;49.930;8.606;2023-05-16T06:54:19;100062.22;;;12.63;100.00
21956;BME280;11142;49.930;8.606;2023-05-16T06:56:48;100069.47;;;12.47;100.00
21956;BME280;11142;49.930;8.606;2023-05-16T06:59:16;100071.63;;;12.53;100.00
21956;BME280;11142;49.930;8.606;2023-05-16T07:01:44;100078.03;;;12.49;100.00
21956;BME280;11142;49.930;8.606;2023-05-16T07:04:13;100073.06;;;12.33;100.00
21956;BME280;11142;49.930;8.606;2023-05-16T07:06:42;100087.44;;;12.26;100.00
21956;BME280;11142;49.930;8.606;2023-05-16T07:09:12;100101.19;;;12.28;100.00
21956;BME280;11142;49.930;8.606;2023-05-16T07:11:41;100083.91;;;12.27;100.00
21956;BME280;11142;49.930;8.606;2023-05-16T07:14:09;100098.94;;;12.47;100.00
21956;BME280;11142;49.930;8.606;2023-05-16T07:16:38;100090.84;;;12.39;100.00
21956;BME280;11142;49.930;8.606;2023-05-16T07:19:07;100096.72;;;12.30;100.00
21956;BME280;11142;49.930;8.606;2023-05-16T07:21:36;100106.09;;;12.20;100.00
21956;BME280;11142;49.930;8.606;2023-05-16T07:24:04;100110.06;;;12.13;100.00
21956;BME280;11142;49.930;8.606;2023-05-16T07:26:34;100110.69;;;12.16;100.00
21956;BME280;11142;49.930;8.606;2023-05-16T07:29:02;100107.84;;;12.19;100.00
21956;BME280;11142;49.930;8.606;2023-05-16T07:31:31;100111.72;;;12.14;100.00
21956;BME280;11142;49.930;8.606;2023-05-16T07:33:59;100115.75;;;12.18;100.00
21956;BME280;11142;49.930;8.606;2023-05-16T07:36:28;100107.44;;;12.25;100.00
21956;BME280;11142;49.930;8.606;2023-05-16T07:38:56;100111.78;;;12.25;100.00
21956;BME280;11142;49.930;8.606;2023-05-16T07:41:25;100116.91;;;12.27;100.00
21956;BME280;11142;49.930;8.606;2023-05-16T07:43:55;100111.41;;;12.55;100.00
21956;BME280;11142;49.930;8.606;2023-05-16T07:46:24;100118.22;;;12.45;100.00
21956;BME280;11142;49.930;8.606;2023-05-16T07:48:53;100125.16;;;12.57;100.00
21956;BME280;11142;49.930;8.606;2023-05-16T07:51:23;100133.53;;;12.49;100.00
21956;BME280;11142;49.930;8.606;2023-05-16T07:53:51;100124.75;;;12.01;100.00
21956;BME280;11142;49.930;8.606;2023-05-16T07:56:19;100126.38;;;12.15;100.00
21956;BME280;11142;49.930;8.606;2023-05-16T07:58:49;100139.19;;;11.93;100.00
21956;BME280;11142;49.930;8.606;2023-05-16T08:01:19;100129.19;;;11.99;100.00
21956;BME280;11142;49.930;8.606;2023-05-16T08:03:50;100135.25;;;12.00;100.00
21956;BME280;11142;49.930;8.606;2023-05-16T08:06:19;100147.75;;;11.95;100.00
21956;BME280;11142;49.930;8.606;2023-05-16T08:08:48;100152.41;;;11.90;100.00
21956;BME280;11142;49.930;8.606;2023-05-16T08:11:16;100146.78;;;11.96;100.00
21956;BME280;11142;49.930;8.606;2023-05-16T08:13:45;100158.66;;;12.00;100.00
21956;BME280;11142;49.930;8.606;2023-05-16T08:16:13;100164.25;;;11.81;100.00
21956;BME280;11142;49.930;8.606;2023-05-16T08:18:43;100162.38;;;11.70;100.00
21956;BME280;11142;49.930;8.606;2023-05-16T08:21:11;100173.16;;;11.64;100.00
21956;BME280;11142;49.930;8.606;2023-05-16T08:23:42;100202.56;;;11.52;100.00
21956;BME280;11142;49.930;8.606;2023-05-16T08:26:10;100183.00;;;11.47;100.00
21956;BME280;11142;49.930;8.606;2023-05-16T08:28:38;100192.47;;;11.21;100.00
21956;BME280;11142;49.930;8.606;2023-05-16T08:31:06;100192.75;;;11.16;100.00
21956;BME280;11142;49.930;8.606;2023-05-16T08:33:35;100184.78;;;10.93;100.00
21956;BME280;11142;49.930;8.606;2023-05-16T08:36:05;100175.91;;;10.83;100.00
21956;BME280;11142;49.930;8.606;2023-05-16T08:38:34;100192.72;;;10.77;100.00
21956;BME280;11142;49.930;8.606;2023-05-16T08:41:04;100176.50;;;10.74;100.00
21956;BME280;11142;49.930;8.606;2023-05-16T08:43:33;100181.88;;;10.71;100.00
21956;BME280;11142;49.930;8.606;2023-05-16T08:46:02;100182.97;;;10.66;100.00
21956;BME280;11142;49.930;8.606;2023-05-16T08:48:33;100186.41;;;10.53;100.00
21956;BME280;11142;49.930;8.606;2023-05-16T08:51:05;100180.56;;;10.78;100.00
21956;BME280;11142;49.930;8.606;2023-05-16T08:53:36;100186.09;;;10.86;100.00
21956;BME280;11142;49.930;8.606;2023-05-16T08:56:06;100196.47;;;11.00;100.00
21956;BME280;11142;49.930;8.606;2023-05-16T08:58:36;100185.50;;;10.95;100.00
21956;BME280;11142;49.930;8.606;2023-05-16T09:01:04;100195.50;;;11.01;100.00
21956;BME280;11142;49.930;8.606;2023-05-16T09:03:35;100209.19;;;11.17;100.00
21956;BME280;11142;49.930;8.606;2023-05-16T09:06:06;100203.81;;;11.59;100.00
21956;BME280;11142;49.930;8.606;2023-05-16T09:08:34;100212.38;;;11.35;100.00
21956;BME280;11142;49.930;8.606;2023-05-16T09:11:02;100219.25;;;10.95;100.00
21956;BME280;11142;49.930;8.606;2023-05-16T09:13:31;100216.44;;;11.12;100.00
21956;BME280;11142;49.930;8.606;2023-05-16T09:16:10;100207.78;;;11.26;100.00
21956;BME280;11142;49.930;8.606;2023-05-16T09:18:38;100217.94;;;11.16;100.00
21956;BME280;11142;49.930;8.606;2023-05-16T09:21:08;100212.50;;;11.46;100.00
21956;BME280;11142;49.930;8.606;2023-05-16T09:23:37;100210.75;;;11.46;100.00
21956;BME280;11142;49.930;8.606;2023-05-16T09:26:05;100206.94;;;12.04;100.00
21956;BME280;11142;49.930;8.606;2023-05-16T09:28:36;100215.66;;;12.41;100.00
21956;BME280;11142;49.930;8.606;2023-05-16T09:31:17;100218.56;;;12.49;100.00
21956;BME280;11142;49.930;8.606;2023-05-16T09:33:46;100214.22;;;13.46;100.00
21956;BME280;11142;49.930;8.606;2023-05-16T09:36:16;100216.13;;;13.07;100.00
21956;BME280;11142;49.930;8.606;2023-05-16T09:38:44;100228.25;;;13.56;100.00
21956;BME280;11142;49.930;8.606;2023-05-16T09:41:12;100224.16;;;13.04;100.00
21956;BME280;11142;49.930;8.606;2023-05-16T09:43:41;100225.22;;;13.38;100.00
21956;BME280;11142;49.930;8.606;2023-05-16T09:46:11;100219.47;;;13.22;100.00
21956;BME280;11142;49.930;8.606;2023-05-16T09:48:39;100225.66;;;13.67;100.00
21956;BME280;11142;49.930;8.606;2023-05-16T09:51:08;100229.94;;;13.09;100.00
21956;BME280;11142;49.930;8.606;2023-05-16T09:53:40;100241.91;;;13.94;100.00
21956;BME280;11142;49.930;8.606;2023-05-16T09:56:10;100236.31;;;14.56;100.00
21956;BME280;11142;49.930;8.606;2023-05-16T09:58:39;100242.25;;;14.58;100.00
21956;BME280;11142;49.930;8.606;2023-05-16T10:01:07;100238.22;;;14.54;100.00
21956;BME280;11142;49.930;8.606;2023-05-16T10:03:36;100236.22;;;13.42;100.00
21956;BME280;11142;49.930;8.606;2023-05-16T10:06:05;100226.78;;;14.88;100.00
21956;BME280;11142;49.930;8.606;2023-05-16T10:08:34;100240.91;;;14.30;100.00
21956;BME280;11142;49.930;8.606;2023-05-16T10:11:05;100227.19;;;14.39;100.00
21956;BME280;11142;49.930;8.606;2023-05-16T10:13:33;100223.28;;;13.64;100.00
21956;BME280;11142;49.930;8.606;2023-05-16T10:16:04;100226.81;;;13.52;100.00
21956;BME280;11142;49.930;8.606;2023-05-16T10:18:33;100239.63;;;13.90;100.00
21956;BME280;11142;49.930;8.606;2023-05-16T10:21:04;100239.44;;;14.04;100.00
21956;BME280;11142;49.930;8.606;2023-05-16T10:23:35;100236.25;;;14.22;100.00
21956;BME280;11142;49.930;8.606;2023-05-16T10:26:07;100248.41;;;14.34;100.00
21956;BME280;11142;49.930;8.606;2023-05-16T10:28:35;100235.94;;;13.92;100.00
21956;BME280;11142;49.930;8.606;2023-05-16T10:31:04;100239.22;;;14.29;100.00
21956;BME280;11142;49.930;8.606;2023-05-16T10:33:33;100245.13;;;13.63;100.00
21956;BME280;11142;49.930;8.606;2023-05-16T10:36:03;100246.41;;;12.85;100.00
21956;BME280;11142;49.930;8.606;2023-05-16T10:38:32;100234.47;;;13.18;100.00
21956;BME280;11142;49.930;8.606;2023-05-16T10:41:00;100239.28;;;13.36;100.00
21956;BME280;11142;49.930;8.606;2023-05-16T10:43:30;100229.41;;;13.52;100.00
21956;BME280;11142;49.930;8.606;2023-05-16T10:46:01;100235.06;;;12.86;100.00
21956;BME280;11142;49.930;8.606;2023-05-16T10:48:30;100250.09;;;12.57;100.00
21956;BME280;11142;49.930;8.606;2023-05-16T10:50:59;100246.53;;;12.83;100.00
21956;BME280;11142;49.930;8.606;2023-05-16T10:53:29;100254.50;;;13.18;100.00
21956;BME280;11142;49.930;8.606;2023-05-16T10:56:06;100252.50;;;13.80;100.00
21956;BME280;11142;49.930;8.606;2023-05-16T10:58:43;100248.34;;;13.43;100.00
21956;BME280;11142;49.930;8.606;2023-05-16T11:01:19;100256.19;;;13.77;100.00
21956;BME280;11142;49.930;8.606;2023-05-16T11:04:06;100259.25;;;13.48;100.00
21956;BME280;11142;49.930;8.606;2023-05-16T11:06:42;100260.13;;;13.36;100.00
21956;BME280;11142;49.930;8.606;2023-05-16T11:09:17;100259.31;;;13.94;100.00
21956;BME280;11142;49.930;8.606;2023-05-16T11:11:53;100254.16;;;14.16;100.00
21956;BME280;11142;49.930;8.606;2023-05-16T11:14:23;100259.28;;;15.28;97.08
21956;BME280;11142;49.930;8.606;2023-05-16T11:16:51;100258.09;;;15.10;93.55
21956;BME280;11142;49.930;8.606;2023-05-16T11:22:07;100268.00;;;13.70;97.21
21956;BME280;11142;49.930;8.606;2023-05-16T11:24:36;100263.03;;;14.70;91.75
21956;BME280;11142;49.930;8.606;2023-05-16T11:27:05;100271.88;;;15.98;81.96
21956;BME280;11142;49.930;8.606;2023-05-16T11:29:35;100265.81;;;15.98;80.10
21956;BME280;11142;49.930;8.606;2023-05-16T11:32:03;100273.84;;;15.85;81.94
21956;BME280;11142;49.930;8.606;2023-05-16T11:34:34;100273.97;;;14.64;83.24
21956;BME280;11142;49.930;8.606;2023-05-16T11:37:05;100267.94;;;14.29;86.89
21956;BME280;11142;49.930;8.606;2023-05-16T11:39:33;100266.81;;;15.00;87.64
21956;BME280;11142;49.930;8.606;2023-05-16T11:42:01;100267.88;;;14.97;83.47
21956;BME280;11142;49.930;8.606;2023-05-16T11:44:30;100269.09;;;14.71;82.52
21956;BME280;11142;49.930;8.606;2023-05-16T11:47:00;100278.75;;;13.90;84.20
21956;BME280;11142;49.930;8.606;2023-05-16T11:49:28;100276.78;;;14.50;80.46
21956;BME280;11142;49.930;8.606;2023-05-16T11:51:56;100279.13;;;15.20;79.10
21956;BME280;11142;49.930;8.606;2023-05-16T11:54:25;100275.84;;;14.84;78.16
21956;BME280;11142;49.930;8.606;2023-05-16T11:56:53;100280.59;;;14.79;75.25
21956;BME280;11142;49.930;8.606;2023-05-16T11:59:20;100286.53;;;14.81;71.85
21956;BME280;11142;49.930;8.606;2023-05-16T12:01:49;100294.47;;;14.91;70.75
21956;BME280;11142;49.930;8.606;2023-05-16T12:04:18;100294.94;;;14.41;69.90
21956;BME280;11142;49.930;8.606;2023-05-16T12:06:56;100286.66;;;14.80;69.44
21956;BME280;11142;49.930;8.606;2023-05-16T12:09:24;100280.31;;;15.27;68.14
21956;BME280;11142;49.930;8.606;2023-05-16T12:11:52;100283.56;;;14.86;69.64
21956;BME280;11142;49.930;8.606;2023-05-16T12:14:20;100277.50;;;15.08;69.29
21956;BME280;11142;49.930;8.606;2023-05-16T12:16:49;100277.25;;;15.65;67.61
21956;BME280;11142;49.930;8.606;2023-05-16T12:19:20;100271.16;;;16.37;64.17
21956;BME280;11142;49.930;8.606;2023-05-16T12:21:51;100275.59;;;16.16;60.58
21956;BME280;11142;49.930;8.606;2023-05-16T12:24:19;100278.66;;;16.01;61.97
21956;BME280;11142;49.930;8.606;2023-05-16T12:26:47;100268.31;;;17.11;56.49
21956;BME280;11142;49.930;8.606;2023-05-16T12:29:15;100272.50;;;16.83;56.82
21956;BME280;11142;49.930;8.606;2023-05-16T12:31:43;100278.41;;;17.15;55.00
21956;BME280;11142;49.930;8.606;2023-05-16T12:34:14;100277.59;;;16.54;55.28
21956;BME280;11142;49.930;8.606;2023-05-16T12:36:44;100279.50;;;19.48;49.46
21956;BME280;11142;49.930;8.606;2023-05-16T12:39:12;100279.69;;;20.85;42.42
21956;BME280;11142;49.930;8.606;2023-05-16T12:41:40;100282.09;;;23.90;36.43
21956;BME280;11142;49.930;8.606;2023-05-16T12:44:12;100283.75;;;23.07;35.48
21956;BME280;11142;49.930;8.606;2023-05-16T12:46:43;100276.13;;;22.73;36.00
21956;BME280;11142;49.930;8.606;2023-05-16T12:49:12;100275.91;;;19.22;42.81
21956;BME280;11142;49.930;8.606;2023-05-16T12:51:40;100277.72;;;19.21;46.40
21956;BME280;11142;49.930;8.606;2023-05-16T12:54:21;100277.09;;;22.72;37.46
21956;BME280;11142;49.930;8.606;2023-05-16T12:56:53;100268.94;;;25.22;32.98
21956;BME280;11142;49.930;8.606;2023-05-16T12:59:21;100282.00;;;22.91;35.88
21956;BME280;11142;49.930;8.606;2023-05-16T13:01:49;100276.00;;;22.97;34.89